sensor_id;sensor_type;location;lat;lon;timestamp;P1;durP1;ratioP1;P2;durP2;ratioP2
76336;SDS011;65157;50.082;18.178;2023-09-19T00:00:06;16.90;;;12.70;;
76336;SDS011;65157;50.082;18.178;2023-09-19T00:02:55;19.20;;;14.00;;
76336;SDS011;65157;50.082;18.178;2023-09-19T00:05:23;19.20;;;14.50;;
76336;SDS011;65157;50.082;18.178;2023-09-19T00:07:50;19.50;;;14.40;;
76336;SDS011;65157;50.082;18.178;2023-09-19T00:10:17;18.30;;;14.10;;
76336;SDS011;65157;50.082;18.178;2023-09-19T00:12:44;18.20;;;13.10;;
76336;SDS011;65157;50.082;18.178;2023-09-19T00:15:11;18.40;;;15.00;;
76336;SDS011;65157;50.082;18.178;2023-09-19T00:17:37;16.30;;;12.40;;
76336;SDS011;65157;50.082;18.178;2023-09-19T00:20:04;19.20;;;15.10;;
76336;SDS011;65157;50.082;18.178;2023-09-19T00:22:31;14.60;;;12.30;;
76336;SDS011;65157;50.082;18.178;2023-09-19T00:24:57;17.20;;;13.00;;
76336;SDS011;65157;50.082;18.178;2023-09-19T00:27:24;18.00;;;14.40;;
76336;SDS011;65157;50.082;18.178;2023-09-19T00:29:51;18.90;;;12.30;;
76336;SDS011;65157;50.082;18.178;2023-09-19T00:32:17;17.70;;;14.90;;
76336;SDS011;65157;50.082;18.178;2023-09-19T00:34:44;18.30;;;14.80;;
76336;SDS011;65157;50.082;18.178;2023-09-19T00:37:10;19.90;;;14.10;;
76336;SDS011;65157;50.082;18.178;2023-09-19T00:39:37;17.90;;;13.90;;
76336;SDS011;65157;50.082;18.178;2023-09-19T00:44:31;16.80;;;14.00;;
76336;SDS011;65157;50.082;18.178;2023-09-19T00:46:57;16.30;;;12.40;;
76336;SDS011;65157;50.082;18.178;2023-09-19T00:49:24;17.20;;;12.30;;
76336;SDS011;65157;50.082;18.178;2023-09-19T00:51:51;20.20;;;13.20;;
76336;SDS011;65157;50.082;18.178;2023-09-19T00:54:17;17.80;;;14.40;;
76336;SDS011;65157;50.082;18.178;2023-09-19T00:56:45;18.50;;;13.20;;
76336;SDS011;65157;50.082;18.178;2023-09-19T00:59:12;17.30;;;13.10;;
76336;SDS011;65157;50.082;18.178;2023-09-19T01:01:39;15.40;;;12.40;;
76336;SDS011;65157;50.082;18.178;2023-09-19T01:04:06;18.30;;;14.10;;
76336;SDS011;65157;50.082;18.178;2023-09-19T01:06:33;16.10;;;13.20;;
76336;SDS011;65157;50.082;18.178;2023-09-19T01:08:59;15.10;;;12.70;;
76336;SDS011;65157;50.082;18.178;2023-09-19T01:11:38;17.70;;;14.90;;
76336;SDS011;65157;50.082;18.178;2023-09-19T01:14:13;16.00;;;13.90;;
76336;SDS011;65157;50.082;18.178;2023-09-19T01:17:03;15.40;;;13.60;;
76336;SDS011;65157;50.082;18.178;2023-09-19T01:25:19;16.40;;;13.30;;
76336;SDS011;65157;50.082;18.178;2023-09-19T01:28:11;18.50;;;14.40;;
76336;SDS011;65157;50.082;18.178;2023-09-19T01:30:46;15.30;;;12.10;;
76336;SDS011;65157;50.082;18.178;2023-09-19T01:33:13;17.60;;;13.50;;
76336;SDS011;65157;50.082;18.178;2023-09-19T01:35:40;17.20;;;15.40;;
76336;SDS011;65157;50.082;18.178;2023-09-19T01:38:06;20.60;;;14.00;;
76336;SDS011;65157;50.082;18.178;2023-09-19T01:40:33;17.50;;;14.70;;
76336;SDS011;65157;50.082;18.178;2023-09-19T01:43:09;17.90;;;13.50;;
76336;SDS011;65157;50.082;18.178;2023-09-19T01:45:52;16.70;;;13.50;;
76336;SDS011;65157;50.082;18.178;2023-09-19T01:48:34;17.10;;;14.10;;
76336;SDS011;65157;50.082;18.178;2023-09-19T01:51:07;16.80;;;13.90;;
76336;SDS011;65157;50.082;18.178;2023-09-19T01:59:16;16.10;;;13.40;;
76336;SDS011;65157;50.082;18.178;2023-09-19T02:01:51;16.20;;;14.40;;
76336;SDS011;65157;50.082;18.178;2023-09-19T02:04:19;16.20;;;14.20;;
76336;SDS011;65157;50.082;18.178;2023-09-19T02:06:46;17.70;;;14.60;;
76336;SDS011;65157;50.082;18.178;2023-09-19T02:09:13;19.90;;;15.90;;
76336;SDS011;65157;50.082;18.178;2023-09-19T02:11:40;17.90;;;13.00;;
76336;SDS011;65157;50.082;18.178;2023-09-19T02:14:07;15.80;;;13.20;;
76336;SDS011;65157;50.082;18.178;2023-09-19T02:16:34;17.70;;;14.10;;
76336;SDS011;65157;50.082;18.178;2023-09-19T02:19:01;17.10;;;13.20;;
76336;SDS011;65157;50.082;18.178;2023-09-19T02:21:28;17.40;;;13.50;;
76336;SDS011;65157;50.082;18.178;2023-09-19T02:26:21;15.70;;;14.10;;
76336;SDS011;65157;50.082;18.178;2023-09-19T02:28:48;17.60;;;14.30;;
76336;SDS011;65157;50.082;18.178;2023-09-19T02:33:41;18.00;;;12.70;;
76336;SDS011;65157;50.082;18.178;2023-09-19T02:36:08;17.00;;;13.00;;
76336;SDS011;65157;50.082;18.178;2023-09-19T02:38:35;16.50;;;14.50;;
76336;SDS011;65157;50.082;18.178;2023-09-19T02:41:02;20.20;;;13.90;;
76336;SDS011;65157;50.082;18.178;2023-09-19T02:43:28;15.30;;;13.00;;
76336;SDS011;65157;50.082;18.178;2023-09-19T02:45:55;18.50;;;14.90;;
76336;SDS011;65157;50.082;18.178;2023-09-19T02:48:22;15.10;;;12.50;;
76336;SDS011;65157;50.082;18.178;2023-09-19T02:50:51;17.40;;;15.10;;
76336;SDS011;65157;50.082;18.178;2023-09-19T02:53:18;20.40;;;14.40;;
76336;SDS011;65157;50.082;18.178;2023-09-19T02:55:46;16.80;;;14.20;;
76336;SDS011;65157;50.082;18.178;2023-09-19T02:58:13;16.10;;;14.40;;
76336;SDS011;65157;50.082;18.178;2023-09-19T03:03:06;16.00;;;13.20;;
76336;SDS011;65157;50.082;18.178;2023-09-19T03:05:33;17.70;;;15.00;;
76336;SDS011;65157;50.082;18.178;2023-09-19T03:08:00;17.80;;;14.30;;
76336;SDS011;65157;50.082;18.178;2023-09-19T03:10:27;18.50;;;14.40;;
76336;SDS011;65157;50.082;18.178;2023-09-19T03:12:54;15.80;;;12.80;;
76336;SDS011;65157;50.082;18.178;2023-09-19T03:15:21;16.70;;;13.40;;
76336;SDS011;65157;50.082;18.178;2023-09-19T03:17:48;16.30;;;13.00;;
76336;SDS011;65157;50.082;18.178;2023-09-19T03:20:15;15.90;;;13.90;;
76336;SDS011;65157;50.082;18.178;2023-09-19T03:22:42;17.40;;;14.20;;
76336;SDS011;65157;50.082;18.178;2023-09-19T03:25:12;15.80;;;12.60;;
76336;SDS011;65157;50.082;18.178;2023-09-19T03:27:39;16.50;;;13.50;;
76336;SDS011;65157;50.082;18.178;2023-09-19T03:30:06;13.80;;;11.70;;
76336;SDS011;65157;50.082;18.178;2023-09-19T03:32:34;15.80;;;11.90;;
76336;SDS011;65157;50.082;18.178;2023-09-19T03:35:02;13.10;;;11.50;;
76336;SDS011;65157;50.082;18.178;2023-09-19T03:37:29;13.50;;;11.50;;
76336;SDS011;65157;50.082;18.178;2023-09-19T03:39:56;17.40;;;13.40;;
76336;SDS011;65157;50.082;18.178;2023-09-19T03:42:22;14.20;;;11.40;;
76336;SDS011;65157;50.082;18.178;2023-09-19T03:44:49;15.50;;;13.10;;
76336;SDS011;65157;50.082;18.178;2023-09-19T03:47:15;12.50;;;10.70;;
76336;SDS011;65157;50.082;18.178;2023-09-19T03:52:08;13.40;;;9.60;;
76336;SDS011;65157;50.082;18.178;2023-09-19T03:54:35;11.20;;;9.40;;
76336;SDS011;65157;50.082;18.178;2023-09-19T03:57:02;8.80;;;7.90;;
76336;SDS011;65157;50.082;18.178;2023-09-19T03:59:29;8.30;;;7.40;;
76336;SDS011;65157;50.082;18.178;2023-09-19T04:04:22;7.30;;;6.60;;
76336;SDS011;65157;50.082;18.178;2023-09-19T04:06:48;8.50;;;6.60;;
76336;SDS011;65157;50.082;18.178;2023-09-19T04:11:41;7.70;;;5.50;;
76336;SDS011;65157;50.082;18.178;2023-09-19T04:16:34;5.60;;;5.10;;
76336;SDS011;65157;50.082;18.178;2023-09-19T04:19:01;6.90;;;5.20;;
76336;SDS011;65157;50.082;18.178;2023-09-19T04:21:28;5.10;;;4.60;;
76336;SDS011;65157;50.082;18.178;2023-09-19T04:23:55;5.80;;;5.30;;
76336;SDS011;65157;50.082;18.178;2023-09-19T04:28:48;4.70;;;4.10;;
76336;SDS011;65157;50.082;18.178;2023-09-19T04:33:42;5.20;;;4.70;;
76336;SDS011;65157;50.082;18.178;2023-09-19T04:36:09;6.20;;;5.60;;
76336;SDS011;65157;50.082;18.178;2023-09-19T04:38:35;5.40;;;4.90;;
76336;SDS011;65157;50.082;18.178;2023-09-19T04:41:02;4.70;;;3.40;;
76336;SDS011;65157;50.082;18.178;2023-09-19T04:45:55;3.80;;;3.40;;
76336;SDS011;65157;50.082;18.178;2023-09-19T04:50:49;2.40;;;2.20;;
76336;SDS011;65157;50.082;18.178;2023-09-19T04:55:42;5.10;;;3.50;;
76336;SDS011;65157;50.082;18.178;2023-09-19T04:58:09;3.40;;;3.10;;
76336;SDS011;65157;50.082;18.178;2023-09-19T05:00:36;2.30;;;2.10;;
76336;SDS011;65157;50.082;18.178;2023-09-19T05:03:03;2.40;;;1.80;;
76336;SDS011;65157;50.082;18.178;2023-09-19T05:05:30;2.00;;;1.90;;
76336;SDS011;65157;50.082;18.178;2023-09-19T05:07:56;2.30;;;2.10;;
76336;SDS011;65157;50.082;18.178;2023-09-19T05:10:24;2.40;;;2.20;;
76336;SDS011;65157;50.082;18.178;2023-09-19T05:12:53;2.40;;;2.30;;
76336;SDS011;65157;50.082;18.178;2023-09-19T05:15:20;2.20;;;2.00;;
76336;SDS011;65157;50.082;18.178;2023-09-19T05:17:48;2.70;;;2.00;;
76336;SDS011;65157;50.082;18.178;2023-09-19T05:20:15;2.50;;;2.20;;
76336;SDS011;65157;50.082;18.178;2023-09-19T05:25:09;3.60;;;3.30;;
76336;SDS011;65157;50.082;18.178;2023-09-19T05:27:36;1.50;;;1.40;;
76336;SDS011;65157;50.082;18.178;2023-09-19T05:32:30;2.50;;;2.00;;
76336;SDS011;65157;50.082;18.178;2023-09-19T05:37:23;2.90;;;2.70;;
76336;SDS011;65157;50.082;18.178;2023-09-19T05:39:49;2.10;;;1.90;;
76336;SDS011;65157;50.082;18.178;2023-09-19T05:44:43;2.90;;;2.70;;
76336;SDS011;65157;50.082;18.178;2023-09-19T05:49:36;2.90;;;2.30;;
76336;SDS011;65157;50.082;18.178;2023-09-19T05:54:29;2.90;;;2.40;;
76336;SDS011;65157;50.082;18.178;2023-09-19T05:56:56;2.20;;;2.00;;
76336;SDS011;65157;50.082;18.178;2023-09-19T05:59:23;3.50;;;2.10;;
76336;SDS011;65157;50.082;18.178;2023-09-19T06:04:16;5.60;;;2.80;;
76336;SDS011;65157;50.082;18.178;2023-09-19T06:09:10;4.30;;;3.30;;
76336;SDS011;65157;50.082;18.178;2023-09-19T06:11:37;5.20;;;2.30;;
76336;SDS011;65157;50.082;18.178;2023-09-19T06:16:30;4.10;;;2.80;;
76336;SDS011;65157;50.082;18.178;2023-09-19T06:18:57;2.60;;;2.10;;
76336;SDS011;65157;50.082;18.178;2023-09-19T06:21:24;3.10;;;2.90;;
76336;SDS011;65157;50.082;18.178;2023-09-19T06:23:51;4.70;;;3.60;;
76336;SDS011;65157;50.082;18.178;2023-09-19T06:28:44;4.10;;;3.20;;
76336;SDS011;65157;50.082;18.178;2023-09-19T06:31:12;3.20;;;2.70;;
76336;SDS011;65157;50.082;18.178;2023-09-19T06:33:39;5.00;;;2.50;;
76336;SDS011;65157;50.082;18.178;2023-09-19T06:36:06;3.20;;;2.70;;
76336;SDS011;65157;50.082;18.178;2023-09-19T06:38:33;2.80;;;2.40;;
76336;SDS011;65157;50.082;18.178;2023-09-19T06:41:00;3.20;;;2.60;;
76336;SDS011;65157;50.082;18.178;2023-09-19T06:43:27;4.90;;;3.20;;
76336;SDS011;65157;50.082;18.178;2023-09-19T06:48:20;4.00;;;3.70;;
76336;SDS011;65157;50.082;18.178;2023-09-19T06:53:13;3.70;;;3.20;;
76336;SDS011;65157;50.082;18.178;2023-09-19T06:55:40;4.50;;;4.20;;
76336;SDS011;65157;50.082;18.178;2023-09-19T06:58:06;3.40;;;3.00;;
76336;SDS011;65157;50.082;18.178;2023-09-19T07:03:03;8.50;;;3.30;;
76336;SDS011;65157;50.082;18.178;2023-09-19T07:05:33;2.90;;;2.60;;
76336;SDS011;65157;50.082;18.178;2023-09-19T07:08:01;3.00;;;2.80;;
76336;SDS011;65157;50.082;18.178;2023-09-19T07:10:28;4.80;;;3.30;;
76336;SDS011;65157;50.082;18.178;2023-09-19T07:12:55;4.10;;;2.80;;
76336;SDS011;65157;50.082;18.178;2023-09-19T07:15:32;4.20;;;3.80;;
76336;SDS011;65157;50.082;18.178;2023-09-19T07:17:59;3.80;;;3.50;;
76336;SDS011;65157;50.082;18.178;2023-09-19T07:20:27;3.90;;;3.40;;
76336;SDS011;65157;50.082;18.178;2023-09-19T07:22:53;3.20;;;2.90;;
76336;SDS011;65157;50.082;18.178;2023-09-19T07:25:20;4.50;;;4.10;;
76336;SDS011;65157;50.082;18.178;2023-09-19T07:27:47;6.20;;;3.40;;
76336;SDS011;65157;50.082;18.178;2023-09-19T07:30:14;5.30;;;3.20;;
76336;SDS011;65157;50.082;18.178;2023-09-19T07:32:41;5.30;;;2.90;;
76336;SDS011;65157;50.082;18.178;2023-09-19T07:37:34;4.10;;;3.80;;
76336;SDS011;65157;50.082;18.178;2023-09-19T07:40:02;5.70;;;3.80;;
76336;SDS011;65157;50.082;18.178;2023-09-19T07:42:29;6.80;;;5.00;;
76336;SDS011;65157;50.082;18.178;2023-09-19T07:47:23;4.70;;;4.30;;
76336;SDS011;65157;50.082;18.178;2023-09-19T07:49:49;5.80;;;4.90;;
76336;SDS011;65157;50.082;18.178;2023-09-19T07:54:42;6.80;;;4.60;;
76336;SDS011;65157;50.082;18.178;2023-09-19T07:57:09;4.80;;;4.40;;
76336;SDS011;65157;50.082;18.178;2023-09-19T07:59:37;4.60;;;3.90;;
76336;SDS011;65157;50.082;18.178;2023-09-19T08:02:04;5.80;;;3.70;;
76336;SDS011;65157;50.082;18.178;2023-09-19T08:04:31;5.70;;;5.20;;
76336;SDS011;65157;50.082;18.178;2023-09-19T08:09:24;4.80;;;4.40;;
76336;SDS011;65157;50.082;18.178;2023-09-19T08:11:51;4.00;;;3.60;;
76336;SDS011;65157;50.082;18.178;2023-09-19T08:14:18;4.20;;;3.00;;
76336;SDS011;65157;50.082;18.178;2023-09-19T08:16:44;3.50;;;2.80;;
76336;SDS011;65157;50.082;18.178;2023-09-19T08:19:11;4.10;;;3.80;;
76336;SDS011;65157;50.082;18.178;2023-09-19T08:21:37;3.70;;;3.40;;
76336;SDS011;65157;50.082;18.178;2023-09-19T08:24:04;3.40;;;3.10;;
76336;SDS011;65157;50.082;18.178;2023-09-19T08:26:31;4.00;;;3.70;;
76336;SDS011;65157;50.082;18.178;2023-09-19T08:28:57;4.60;;;4.30;;
76336;SDS011;65157;50.082;18.178;2023-09-19T08:31:25;4.10;;;3.10;;
76336;SDS011;65157;50.082;18.178;2023-09-19T08:36:18;5.20;;;3.50;;
76336;SDS011;65157;50.082;18.178;2023-09-19T08:38:44;3.50;;;3.20;;
76336;SDS011;65157;50.082;18.178;2023-09-19T08:41:11;3.10;;;2.40;;
76336;SDS011;65157;50.082;18.178;2023-09-19T08:43:38;3.30;;;3.00;;
76336;SDS011;65157;50.082;18.178;2023-09-19T08:48:31;3.50;;;3.30;;
76336;SDS011;65157;50.082;18.178;2023-09-19T08:51:02;3.10;;;2.40;;
76336;SDS011;65157;50.082;18.178;2023-09-19T08:53:40;3.30;;;3.00;;
76336;SDS011;65157;50.082;18.178;2023-09-19T08:56:10;4.20;;;4.00;;
76336;SDS011;65157;50.082;18.178;2023-09-19T08:58:43;3.40;;;3.20;;
76336;SDS011;65157;50.082;18.178;2023-09-19T09:01:15;4.10;;;2.60;;
76336;SDS011;65157;50.082;18.178;2023-09-19T09:03:42;3.60;;;3.40;;
76336;SDS011;65157;50.082;18.178;2023-09-19T09:06:09;3.20;;;2.90;;
76336;SDS011;65157;50.082;18.178;2023-09-19T09:08:36;4.50;;;3.40;;
76336;SDS011;65157;50.082;18.178;2023-09-19T09:11:03;4.30;;;4.10;;
76336;SDS011;65157;50.082;18.178;2023-09-19T09:13:30;3.20;;;2.90;;
76336;SDS011;65157;50.082;18.178;2023-09-19T09:15:57;3.10;;;2.90;;
76336;SDS011;65157;50.082;18.178;2023-09-19T09:18:23;2.90;;;2.60;;
76336;SDS011;65157;50.082;18.178;2023-09-19T09:20:50;3.80;;;3.30;;
76336;SDS011;65157;50.082;18.178;2023-09-19T09:23:17;4.00;;;3.60;;
76336;SDS011;65157;50.082;18.178;2023-09-19T09:25:53;3.20;;;3.00;;
76336;SDS011;65157;50.082;18.178;2023-09-19T09:28:21;2.70;;;2.50;;
76336;SDS011;65157;50.082;18.178;2023-09-19T09:30:52;3.40;;;3.10;;
76336;SDS011;65157;50.082;18.178;2023-09-19T09:33:19;2.90;;;2.30;;
76336;SDS011;65157;50.082;18.178;2023-09-19T09:35:52;2.90;;;2.60;;
76336;SDS011;65157;50.082;18.178;2023-09-19T09:38:20;2.30;;;2.20;;
76336;SDS011;65157;50.082;18.178;2023-09-19T09:40:48;3.40;;;3.20;;
76336;SDS011;65157;50.082;18.178;2023-09-19T09:43:24;2.80;;;2.70;;
76336;SDS011;65157;50.082;18.178;2023-09-19T09:46:14;4.10;;;3.70;;
76336;SDS011;65157;50.082;18.178;2023-09-19T09:48:42;2.90;;;2.70;;
76336;SDS011;65157;50.082;18.178;2023-09-19T09:51:09;2.90;;;2.70;;
76336;SDS011;65157;50.082;18.178;2023-09-19T09:53:36;2.60;;;2.40;;
76336;SDS011;65157;50.082;18.178;2023-09-19T09:56:06;2.40;;;2.20;;
76336;SDS011;65157;50.082;18.178;2023-09-19T09:58:50;3.80;;;2.50;;
76336;SDS011;65157;50.082;18.178;2023-09-19T10:01:18;2.50;;;2.30;;
76336;SDS011;65157;50.082;18.178;2023-09-19T10:03:44;3.30;;;2.40;;
76336;SDS011;65157;50.082;18.178;2023-09-19T10:06:12;2.80;;;2.30;;
76336;SDS011;65157;50.082;18.178;2023-09-19T10:08:39;2.50;;;2.40;;
76336;SDS011;65157;50.082;18.178;2023-09-19T10:13:42;3.90;;;3.40;;
76336;SDS011;65157;50.082;18.178;2023-09-19T10:16:10;3.10;;;2.80;;
76336;SDS011;65157;50.082;18.178;2023-09-19T10:18:38;3.40;;;3.00;;
76336;SDS011;65157;50.082;18.178;2023-09-19T10:21:08;2.90;;;2.60;;
76336;SDS011;65157;50.082;18.178;2023-09-19T10:23:36;4.50;;;3.90;;
76336;SDS011;65157;50.082;18.178;2023-09-19T10:26:04;3.90;;;3.30;;
76336;SDS011;65157;50.082;18.178;2023-09-19T10:28:32;4.70;;;4.30;;
76336;SDS011;65157;50.082;18.178;2023-09-19T10:31:01;4.50;;;4.20;;
76336;SDS011;65157;50.082;18.178;2023-09-19T10:33:29;3.30;;;2.50;;
76336;SDS011;65157;50.082;18.178;2023-09-19T10:36:02;4.40;;;4.10;;
76336;SDS011;65157;50.082;18.178;2023-09-19T10:38:31;2.90;;;2.60;;
76336;SDS011;65157;50.082;18.178;2023-09-19T10:40:59;3.60;;;3.30;;
76336;SDS011;65157;50.082;18.178;2023-09-19T10:43:31;3.20;;;2.60;;
76336;SDS011;65157;50.082;18.178;2023-09-19T10:46:02;3.80;;;3.00;;
76336;SDS011;65157;50.082;18.178;2023-09-19T10:48:33;2.90;;;2.60;;
76336;SDS011;65157;50.082;18.178;2023-09-19T10:53:28;2.80;;;2.60;;
76336;SDS011;65157;50.082;18.178;2023-09-19T10:55:58;2.20;;;2.00;;
76336;SDS011;65157;50.082;18.178;2023-09-19T10:58:29;2.60;;;2.40;;
76336;SDS011;65157;50.082;18.178;2023-09-19T11:00:58;3.30;;;3.10;;
76336;SDS011;65157;50.082;18.178;2023-09-19T11:06:42;2.40;;;2.20;;
76336;SDS011;65157;50.082;18.178;2023-09-19T11:09:08;2.70;;;2.50;;
76336;SDS011;65157;50.082;18.178;2023-09-19T11:11:38;2.40;;;2.30;;
76336;SDS011;65157;50.082;18.178;2023-09-19T11:20:19;3.00;;;2.60;;
76336;SDS011;65157;50.082;18.178;2023-09-19T11:22:58;2.90;;;2.70;;
76336;SDS011;65157;50.082;18.178;2023-09-19T11:30:33;4.70;;;2.90;;
76336;SDS011;65157;50.082;18.178;2023-09-19T11:33:16;4.60;;;4.10;;
76336;SDS011;65157;50.082;18.178;2023-09-19T11:36:00;15.70;;;11.40;;
76336;SDS011;65157;50.082;18.178;2023-09-19T11:41:51;11.70;;;8.10;;
76336;SDS011;65157;50.082;18.178;2023-09-19T11:49:18;3.30;;;3.00;;
76336;SDS011;65157;50.082;18.178;2023-09-19T11:51:46;4.80;;;4.20;;
76336;SDS011;65157;50.082;18.178;2023-09-19T11:54:13;3.90;;;3.50;;
76336;SDS011;65157;50.082;18.178;2023-09-19T11:56:40;2.50;;;2.30;;
76336;SDS011;65157;50.082;18.178;2023-09-19T11:59:08;3.70;;;3.40;;
76336;SDS011;65157;50.082;18.178;2023-09-19T12:01:35;5.90;;;3.00;;
76336;SDS011;65157;50.082;18.178;2023-09-19T12:04:10;4.10;;;3.70;;
76336;SDS011;65157;50.082;18.178;2023-09-19T12:06:38;20.30;;;9.80;;
76336;SDS011;65157;50.082;18.178;2023-09-19T12:09:05;4.90;;;4.10;;
76336;SDS011;65157;50.082;18.178;2023-09-19T12:11:31;4.30;;;3.90;;
76336;SDS011;65157;50.082;18.178;2023-09-19T12:13:59;17.60;;;11.60;;
76336;SDS011;65157;50.082;18.178;2023-09-19T12:16:26;5.00;;;3.40;;
76336;SDS011;65157;50.082;18.178;2023-09-19T12:18:53;3.00;;;2.70;;
76336;SDS011;65157;50.082;18.178;2023-09-19T12:24:24;4.00;;;3.60;;
76336;SDS011;65157;50.082;18.178;2023-09-19T12:26:44;2.60;;;2.40;;
76336;SDS011;65157;50.082;18.178;2023-09-19T12:29:14;4.00;;;3.60;;
76336;SDS011;65157;50.082;18.178;2023-09-19T12:31:48;3.80;;;3.60;;
76336;SDS011;65157;50.082;18.178;2023-09-19T12:34:16;3.40;;;3.20;;
76336;SDS011;65157;50.082;18.178;2023-09-19T12:36:46;2.50;;;2.20;;
76336;SDS011;65157;50.082;18.178;2023-09-19T12:39:22;3.50;;;3.20;;
76336;SDS011;65157;50.082;18.178;2023-09-19T12:41:50;7.00;;;5.30;;
76336;SDS011;65157;50.082;18.178;2023-09-19T12:44:17;4.80;;;4.10;;
76336;SDS011;65157;50.082;18.178;2023-09-19T12:46:44;4.20;;;3.90;;
76336;SDS011;65157;50.082;18.178;2023-09-19T12:49:15;2.70;;;2.60;;
76336;SDS011;65157;50.082;18.178;2023-09-19T12:51:43;4.70;;;2.40;;
76336;SDS011;65157;50.082;18.178;2023-09-19T12:54:11;2.80;;;2.60;;
76336;SDS011;65157;50.082;18.178;2023-09-19T12:56:41;3.20;;;3.00;;
76336;SDS011;65157;50.082;18.178;2023-09-19T12:59:09;2.50;;;2.30;;
76336;SDS011;65157;50.082;18.178;2023-09-19T13:01:38;3.10;;;2.90;;
76336;SDS011;65157;50.082;18.178;2023-09-19T13:06:49;2.80;;;2.60;;
76336;SDS011;65157;50.082;18.178;2023-09-19T13:09:17;3.50;;;3.10;;
76336;SDS011;65157;50.082;18.178;2023-09-19T13:11:45;3.20;;;2.20;;
76336;SDS011;65157;50.082;18.178;2023-09-19T13:14:22;2.10;;;2.00;;
76336;SDS011;65157;50.082;18.178;2023-09-19T13:25:16;4.00;;;3.80;;
76336;SDS011;65157;50.082;18.178;2023-09-19T13:27:47;2.00;;;1.90;;
76336;SDS011;65157;50.082;18.178;2023-09-19T13:30:16;3.40;;;3.00;;
76336;SDS011;65157;50.082;18.178;2023-09-19T13:32:44;4.70;;;4.40;;
76336;SDS011;65157;50.082;18.178;2023-09-19T13:35:11;2.40;;;2.30;;
76336;SDS011;65157;50.082;18.178;2023-09-19T13:37:40;2.40;;;2.20;;
76336;SDS011;65157;50.082;18.178;2023-09-19T13:40:09;2.60;;;2.50;;
76336;SDS011;65157;50.082;18.178;2023-09-19T13:42:40;4.00;;;3.80;;
76336;SDS011;65157;50.082;18.178;2023-09-19T13:45:08;3.80;;;3.50;;
76336;SDS011;65157;50.082;18.178;2023-09-19T13:47:35;3.00;;;2.80;;
76336;SDS011;65157;50.082;18.178;2023-09-19T13:50:02;4.30;;;3.90;;
76336;SDS011;65157;50.082;18.178;2023-09-19T13:52:30;4.00;;;3.60;;
76336;SDS011;65157;50.082;18.178;2023-09-19T13:54:58;2.60;;;2.40;;
76336;SDS011;65157;50.082;18.178;2023-09-19T13:57:26;2.80;;;2.60;;
76336;SDS011;65157;50.082;18.178;2023-09-19T13:59:53;3.60;;;3.40;;
76336;SDS011;65157;50.082;18.178;2023-09-19T14:02:20;3.00;;;2.40;;
76336;SDS011;65157;50.082;18.178;2023-09-19T14:04:47;4.80;;;3.40;;
76336;SDS011;65157;50.082;18.178;2023-09-19T14:07:13;4.20;;;3.40;;
76336;SDS011;65157;50.082;18.178;2023-09-19T14:09:40;3.60;;;3.30;;
76336;SDS011;65157;50.082;18.178;2023-09-19T14:12:07;4.20;;;3.80;;
76336;SDS011;65157;50.082;18.178;2023-09-19T14:14:34;4.60;;;3.90;;
76336;SDS011;65157;50.082;18.178;2023-09-19T14:17:01;4.40;;;3.60;;
76336;SDS011;65157;50.082;18.178;2023-09-19T14:19:27;4.90;;;4.00;;
76336;SDS011;65157;50.082;18.178;2023-09-19T14:21:54;3.00;;;2.80;;
76336;SDS011;65157;50.082;18.178;2023-09-19T14:24:22;3.50;;;2.90;;
76336;SDS011;65157;50.082;18.178;2023-09-19T14:26:49;5.20;;;4.90;;
76336;SDS011;65157;50.082;18.178;2023-09-19T14:29:16;3.00;;;2.70;;
76336;SDS011;65157;50.082;18.178;2023-09-19T14:31:42;3.70;;;3.30;;
76336;SDS011;65157;50.082;18.178;2023-09-19T14:34:09;2.10;;;2.00;;
76336;SDS011;65157;50.082;18.178;2023-09-19T14:36:36;3.20;;;3.00;;
76336;SDS011;65157;50.082;18.178;2023-09-19T14:39:03;1.80;;;1.70;;
76336;SDS011;65157;50.082;18.178;2023-09-19T14:41:30;4.30;;;2.50;;
76336;SDS011;65157;50.082;18.178;2023-09-19T14:43:56;2.70;;;2.60;;
76336;SDS011;65157;50.082;18.178;2023-09-19T14:46:23;2.80;;;2.60;;
76336;SDS011;65157;50.082;18.178;2023-09-19T14:48:51;3.80;;;3.50;;
76336;SDS011;65157;50.082;18.178;2023-09-19T14:51:18;2.80;;;2.40;;
76336;SDS011;65157;50.082;18.178;2023-09-19T14:53:46;4.10;;;3.90;;
76336;SDS011;65157;50.082;18.178;2023-09-19T14:56:12;3.20;;;3.00;;
76336;SDS011;65157;50.082;18.178;2023-09-19T14:58:40;2.60;;;2.40;;
76336;SDS011;65157;50.082;18.178;2023-09-19T15:01:07;2.50;;;2.40;;
76336;SDS011;65157;50.082;18.178;2023-09-19T15:03:36;2.40;;;2.20;;
76336;SDS011;65157;50.082;18.178;2023-09-19T15:06:03;2.10;;;2.00;;
76336;SDS011;65157;50.082;18.178;2023-09-19T15:08:32;2.70;;;2.60;;
76336;SDS011;65157;50.082;18.178;2023-09-19T15:11:02;2.30;;;2.20;;
76336;SDS011;65157;50.082;18.178;2023-09-19T15:13:29;2.70;;;2.30;;
76336;SDS011;65157;50.082;18.178;2023-09-19T15:16:03;2.60;;;2.40;;
76336;SDS011;65157;50.082;18.178;2023-09-19T15:18:31;2.20;;;2.10;;
76336;SDS011;65157;50.082;18.178;2023-09-19T15:21:00;3.20;;;3.10;;
76336;SDS011;65157;50.082;18.178;2023-09-19T15:23:27;2.60;;;2.50;;
76336;SDS011;65157;50.082;18.178;2023-09-19T15:25:53;3.10;;;2.80;;
76336;SDS011;65157;50.082;18.178;2023-09-19T15:28:20;3.60;;;3.30;;
76336;SDS011;65157;50.082;18.178;2023-09-19T15:30:46;4.50;;;4.20;;
76336;SDS011;65157;50.082;18.178;2023-09-19T15:33:13;2.70;;;2.50;;
76336;SDS011;65157;50.082;18.178;2023-09-19T15:35:40;3.20;;;3.00;;
76336;SDS011;65157;50.082;18.178;2023-09-19T15:38:06;3.00;;;2.80;;
76336;SDS011;65157;50.082;18.178;2023-09-19T15:40:33;2.60;;;2.30;;
76336;SDS011;65157;50.082;18.178;2023-09-19T15:43:00;2.70;;;2.50;;
76336;SDS011;65157;50.082;18.178;2023-09-19T15:45:26;3.80;;;3.60;;
76336;SDS011;65157;50.082;18.178;2023-09-19T15:47:53;3.30;;;3.00;;
76336;SDS011;65157;50.082;18.178;2023-09-19T15:50:20;3.50;;;2.90;;
76336;SDS011;65157;50.082;18.178;2023-09-19T15:52:46;3.40;;;3.20;;
76336;SDS011;65157;50.082;18.178;2023-09-19T15:55:20;4.00;;;3.10;;
76336;SDS011;65157;50.082;18.178;2023-09-19T15:57:47;3.70;;;3.40;;
76336;SDS011;65157;50.082;18.178;2023-09-19T16:00:13;3.60;;;3.40;;
76336;SDS011;65157;50.082;18.178;2023-09-19T16:02:40;3.10;;;2.60;;
76336;SDS011;65157;50.082;18.178;2023-09-19T16:05:07;4.10;;;3.80;;
76336;SDS011;65157;50.082;18.178;2023-09-19T16:07:34;3.60;;;3.30;;
76336;SDS011;65157;50.082;18.178;2023-09-19T16:10:01;3.70;;;3.50;;
76336;SDS011;65157;50.082;18.178;2023-09-19T16:12:29;3.00;;;2.70;;
76336;SDS011;65157;50.082;18.178;2023-09-19T16:14:56;2.80;;;2.60;;
76336;SDS011;65157;50.082;18.178;2023-09-19T16:17:22;3.40;;;3.10;;
76336;SDS011;65157;50.082;18.178;2023-09-19T16:19:51;3.00;;;2.70;;
76336;SDS011;65157;50.082;18.178;2023-09-19T16:22:18;3.30;;;3.10;;
76336;SDS011;65157;50.082;18.178;2023-09-19T16:24:45;2.90;;;2.60;;
76336;SDS011;65157;50.082;18.178;2023-09-19T16:27:12;3.50;;;3.30;;
76336;SDS011;65157;50.082;18.178;2023-09-19T16:32:05;3.70;;;3.40;;
76336;SDS011;65157;50.082;18.178;2023-09-19T16:34:31;3.40;;;3.10;;
76336;SDS011;65157;50.082;18.178;2023-09-19T16:37:00;5.00;;;4.70;;
76336;SDS011;65157;50.082;18.178;2023-09-19T16:39:26;3.80;;;3.40;;
76336;SDS011;65157;50.082;18.178;2023-09-19T16:41:53;5.20;;;3.40;;
76336;SDS011;65157;50.082;18.178;2023-09-19T16:44:20;4.20;;;3.80;;
76336;SDS011;65157;50.082;18.178;2023-09-19T16:46:47;5.00;;;4.50;;